Time;durP1;ratioP1;P1;durP2;ratioP2;P2;SDS_P1;SDS_P2;PMS_P1;PMS_P2;Temp;Humidity;BMP_temperature;BMP_pressure;BME280_temperature;BME280_humidity;BME280_pressure;Samples;Min_cycle;Max_cycle;Signal;HPM_P1;HPM_P2
2021/12/27 00:02:18;;;;;;;20.85;11.13;;;;;;;0.64;100.00;97565.00;10370642;28;20412;-77
2021/12/27 00:07:19;;;;;;;17.77;10.27;;;;;;;0.56;100.00;97557.66;10408637;28;20060;-78
2021/12/27 00:12:19;;;;;;;21.35;11.43;;;;;;;0.55;100.00;97542.88;10390652;28;20050;-78
2021/12/27 00:17:20;;;;;;;18.00;10.00;;;;;;;0.55;100.00;97548.16;10420522;28;20145;-77
2021/12/27 00:22:20;;;;;;;20.90;10.63;;;;;;;0.50;100.00;97546.31;10422847;28;20192;-80
2021/12/27 00:27:21;;;;;;;19.38;10.98;;;;;;;0.52;100.00;97540.75;10439458;28;20097;-79
2021/12/27 00:32:21;;;;;;;20.98;11.55;;;;;;;0.53;100.00;97550.25;10412625;28;20401;-79
2021/12/27 00:37:23;;;;;;;20.90;11.77;;;;;;;0.55;100.00;97541.03;10396939;28;20084;-80
2021/12/27 00:42:24;;;;;;;20.83;12.35;;;;;;;0.52;100.00;97532.84;10413741;28;20124;-78
2021/12/27 00:47:24;;;;;;;19.38;10.95;;;;;;;0.53;100.00;97524.66;10381262;28;20106;-79
2021/12/27 00:52:26;;;;;;;21.42;11.73;;;;;;;0.65;100.00;97520.88;10398060;28;20050;-78
2021/12/27 00:57:26;;;;;;;21.75;11.52;;;;;;;0.60;100.00;97516.41;10408444;28;20576;-80
2021/12/27 01:02:30;;;;;;;27.23;13.70;;;;;;;0.62;100.00;97514.28;10401018;28;20053;-80
2021/12/27 01:07:35;;;;;;;23.15;12.20;;;;;;;0.56;100.00;97510.13;10397682;28;20049;-78
2021/12/27 01:13:05;;;;;;;25.70;13.25;;;;;;;0.57;100.00;97514.34;10398379;28;20053;-82
2021/12/27 01:17:56;;;;;;;24.58;12.20;;;;;;;0.52;100.00;97517.00;10407473;28;20053;-81
2021/12/27 01:22:57;;;;;;;24.92;12.30;;;;;;;0.59;100.00;97512.19;10397471;28;20068;-79
2021/12/27 01:27:59;;;;;;;25.30;13.27;;;;;;;0.60;100.00;97524.34;10396080;28;20057;-79
2021/12/27 01:33:01;;;;;;;24.60;12.77;;;;;;;0.61;100.00;97519.84;10431907;28;20123;-77
2021/12/27 01:38:04;;;;;;;27.42;14.73;;;;;;;0.62;100.00;97516.91;10430201;28;20083;-81
2021/12/27 01:43:13;;;;;;;27.30;13.95;;;;;;;0.70;100.00;97520.81;10455146;28;20044;-79
2021/12/27 01:48:17;;;;;;;23.20;13.70;;;;;;;0.74;100.00;97514.72;10434315;28;20049;-79
2021/12/27 01:53:17;;;;;;;;;;;;;;;0.65;100.00;97510.31;10420202;28;20087;-79
2021/12/27 01:58:19;;;;;;;28.38;14.43;;;;;;;0.68;100.00;97517.69;10412390;28;19936;-77
2021/12/27 02:03:26;;;;;;;28.08;14.35;;;;;;;0.66;100.00;97514.53;10370049;28;20135;-80
2021/12/27 02:08:28;;;;;;;29.33;15.10;;;;;;;0.70;100.00;97504.97;10391208;28;20057;-79
2021/12/27 02:13:29;;;;;;;32.33;17.35;;;;;;;0.72;100.00;97502.84;10383009;28;20041;-78
2021/12/27 02:18:31;;;;;;;32.38;16.45;;;;;;;0.75;100.00;97494.38;10413235;28;20052;-79
2021/12/27 02:23:32;;;;;;;29.13;14.82;;;;;;;0.78;100.00;97496.47;10382199;28;20057;-79
2021/12/27 02:28:34;;;;;;;30.58;15.15;;;;;;;0.76;100.00;97486.19;10396363;28;20382;-79
2021/12/27 02:33:39;;;;;;;33.92;16.77;;;;;;;0.76;100.00;97499.38;10440165;28;20029;-76
2021/12/27 02:38:42;;;;;;;32.03;17.63;;;;;;;0.78;100.00;97496.47;10432444;28;20034;-80
2021/12/27 02:43:43;;;;;;;31.13;16.92;;;;;;;0.76;100.00;97488.81;10421609;28;20034;-79
2021/12/27 02:48:48;;;;;;;32.25;15.90;;;;;;;0.83;100.00;97485.84;10419924;28;20050;-78
2021/12/27 02:53:49;;;;;;;37.50;18.25;;;;;;;0.83;100.00;97499.84;10389746;28;20057;-76
2021/12/27 02:58:50;;;;;;;38.63;18.55;;;;;;;0.85;100.00;97496.94;10392913;28;20279;-78
2021/12/27 03:03:55;;;;;;;33.33;17.98;;;;;;;0.81;100.00;97494.03;10413543;28;20062;-78
2021/12/27 03:08:57;;;;;;;35.20;17.83;;;;;;;0.82;100.00;97474.50;10388319;28;20509;-78
2021/12/27 03:13:57;;;;;;;35.67;18.83;;;;;;;0.83;100.00;97475.28;10388180;28;20140;-79
2021/12/27 03:18:58;;;;;;;40.40;18.17;;;;;;;0.90;100.00;97474.94;10395538;28;20057;-79
2021/12/27 03:23:59;;;;;;;36.40;19.02;;;;;;;0.97;100.00;97467.47;10377794;28;20152;-78
2021/12/27 03:29:00;;;;;;;34.95;17.85;;;;;;;0.91;100.00;97468.59;10408522;28;20100;-77
2021/12/27 03:34:00;;;;;;;32.25;16.65;;;;;;;1.00;100.00;97472.97;10398202;28;20049;-77
2021/12/27 03:39:01;;;;;;;41.08;19.17;;;;;;;1.03;100.00;97475.09;10407895;28;20073;-77
2021/12/27 03:44:03;;;;;;;38.60;17.70;;;;;;;1.02;100.00;97468.22;10405388;28;20064;-78
2021/12/27 03:49:04;;;;;;;35.47;18.95;;;;;;;1.06;100.00;97469.22;10377415;28;20069;-78
2021/12/27 03:54:07;;;;;;;33.88;17.42;;;;;;;1.04;100.00;97467.94;10394120;28;20053;-78
2021/12/27 03:59:21;;;;;;;33.83;17.38;;;;;;;1.05;100.00;97464.22;10414261;28;20056;-77
2021/12/27 04:04:21;;;;;;;31.33;16.67;;;;;;;1.03;100.00;97461.09;10393145;28;20060;-77
2021/12/27 04:09:22;;;;;;;36.17;17.92;;;;;;;1.06;100.00;97460.50;10421788;28;22170;-78
2021/12/27 04:14:22;;;;;;;36.90;18.52;;;;;;;1.04;100.00;97457.38;10408290;28;20061;-78
2021/12/27 04:19:24;;;;;;;42.95;20.50;;;;;;;1.13;100.00;97463.59;10379446;28;20136;-76
2021/12/27 04:24:27;;;;;;;40.33;19.83;;;;;;;1.06;100.00;97457.88;10409784;28;20112;-76
2021/12/27 04:29:30;;;;;;;38.47;18.85;;;;;;;1.09;100.00;97449.38;10418094;28;20053;-76
2021/12/27 04:34:33;;;;;;;39.70;19.95;;;;;;;1.09;100.00;97446.72;10440174;28;20184;-77
2021/12/27 04:39:34;;;;;;;40.92;18.70;;;;;;;1.06;100.00;97447.31;10429649;28;20481;-77
2021/12/27 04:44:34;;;;;;;39.95;19.38;;;;;;;0.99;100.00;97457.41;10408024;28;20046;-77
2021/12/27 04:49:35;;;;;;;46.58;20.27;;;;;;;1.09;100.00;97459.94;10397626;28;20049;-76
2021/12/27 04:54:36;;;;;;;45.33;20.95;;;;;;;1.03;100.00;97459.22;10413572;28;20071;-78
2021/12/27 04:59:37;;;;;;;45.15;21.45;;;;;;;1.10;100.00;97458.91;10402304;28;20054;-77
2021/12/27 05:04:40;;;;;;;48.65;23.15;;;;;;;1.08;100.00;97445.16;10425438;28;20148;-76
2021/12/27 05:09:40;;;;;;;50.97;22.48;;;;;;;1.07;100.00;97449.66;10414101;28;20057;-77
2021/12/27 05:14:41;;;;;;;45.10;21.40;;;;;;;1.08;100.00;97451.22;10396989;28;20281;-77
2021/12/27 05:19:41;;;;;;;46.22;20.52;;;;;;;1.10;100.00;97446.47;10399918;28;20057;-77
2021/12/27 05:24:42;;;;;;;50.80;20.98;;;;;;;1.11;100.00;97437.47;10396493;28;20065;-78
2021/12/27 05:29:43;;;;;;;44.70;20.80;;;;;;;1.09;100.00;97441.44;10410492;28;20092;-75
2021/12/27 05:34:44;;;;;;;46.03;20.95;;;;;;;1.10;100.00;97435.91;10415601;28;20053;-76
2021/12/27 05:39:45;;;;;;;46.03;20.70;;;;;;;1.10;100.00;97424.53;10401068;28;20079;-77
2021/12/27 05:44:45;;;;;;;46.40;20.25;;;;;;;1.07;100.00;97433.81;10413615;28;20723;-77
2021/12/27 05:49:46;;;;;;;43.85;20.52;;;;;;;1.11;100.00;97442.75;10410865;28;20492;-76
2021/12/27 05:54:47;;;;;;;44.05;21.00;;;;;;;1.18;100.00;97450.31;10410397;28;20060;-79
2021/12/27 05:59:47;;;;;;;44.88;20.23;;;;;;;1.13;100.00;97430.03;10440759;28;20057;-77
2021/12/27 06:04:48;;;;;;;44.05;21.20;;;;;;;1.14;100.00;97434.25;10451067;28;20060;-77
2021/12/27 06:09:49;;;;;;;50.03;21.33;;;;;;;1.17;100.00;97432.91;10406317;28;20116;-77
2021/12/27 06:14:49;;;;;;;48.28;22.65;;;;;;;1.14;100.00;97425.53;10395346;28;20049;-76
2021/12/27 06:19:50;;;;;;;52.58;23.52;;;;;;;1.14;100.00;97420.25;10412675;28;20057;-78
2021/12/27 06:24:50;;;;;;;51.63;21.92;;;;;;;1.20;100.00;97434.22;10409125;28;20144;-77
2021/12/27 06:29:52;;;;;;;51.30;23.15;;;;;;;1.22;100.00;97430.22;10397027;28;20053;-79
2021/12/27 06:34:54;;;;;;;50.03;22.63;;;;;;;1.23;100.00;97426.50;10396186;28;20045;-76
2021/12/27 06:39:57;;;;;;;50.05;23.05;;;;;;;1.24;100.00;97435.19;10373540;28;20132;-78
2021/12/27 06:44:57;;;;;;;50.40;23.23;;;;;;;1.29;100.00;97435.16;10409199;28;20050;-79
2021/12/27 06:49:58;;;;;;;50.33;21.55;;;;;;;1.26;100.00;97431.19;10386907;28;20055;-80
2021/12/27 06:55:00;;;;;;;51.72;23.05;;;;;;;1.29;100.00;97435.16;10401247;28;20056;-78
2021/12/27 07:00:03;;;;;;;48.58;22.88;;;;;;;1.26;100.00;97431.19;10409848;28;20057;-77
2021/12/27 07:05:06;;;;;;;46.42;21.05;;;;;;;1.36;100.00;97444.28;10383589;28;20084;-80
2021/12/27 07:10:12;;;;;;;50.05;22.75;;;;;;;1.36;100.00;97454.09;10398949;28;20053;-80
2021/12/27 07:15:13;;;;;;;45.97;23.00;;;;;;;1.35;100.00;97448.00;10429109;28;20156;-79
2021/12/27 07:20:14;;;;;;;49.72;23.25;;;;;;;1.41;100.00;97443.47;10421134;28;20064;-78
2021/12/27 07:25:15;;;;;;;47.83;23.05;;;;;;;1.41;100.00;97438.16;10427849;28;20061;-78
2021/12/27 07:30:16;;;;;;;45.90;21.65;;;;;;;1.34;100.00;97438.50;10394402;28;20078;-78
2021/12/27 07:35:17;;;;;;;52.42;22.67;;;;;;;1.40;100.00;97429.44;10411735;28;20057;-78
2021/12/27 07:40:19;;;;;;;50.17;22.27;;;;;;;1.39;100.00;97430.53;10406031;28;20056;-79
2021/12/27 07:45:20;;;;;;;53.17;22.38;;;;;;;1.45;100.00;97439.16;10394740;28;20045;-78
2021/12/27 07:50:21;;;;;;;45.97;20.95;;;;;;;1.48;100.00;97435.19;10399820;28;20401;-78
2021/12/27 07:55:21;;;;;;;48.42;21.27;;;;;;;1.49;100.00;97431.47;10423718;28;20053;-78
2021/12/27 08:00:23;;;;;;;47.92;20.88;;;;;;;1.49;100.00;97424.31;10401257;28;20433;-80
2021/12/27 08:05:26;;;;;;;59.03;24.25;;;;;;;1.58;100.00;97427.13;10386957;28;20054;-78
2021/12/27 08:10:28;;;;;;;46.80;21.55;;;;;;;1.59;100.00;97424.19;10379427;28;20485;-78
2021/12/27 08:15:32;;;;;;;53.95;21.83;;;;;;;1.62;100.00;97433.41;10403452;28;20058;-78
2021/12/27 08:20:33;;;;;;;51.03;22.98;;;;;;;1.66;100.00;97423.84;10415011;28;20083;-80
2021/12/27 08:25:33;;;;;;;55.38;23.33;;;;;;;1.69;100.00;97426.69;10403442;28;20045;-77
2021/12/27 08:30:37;;;;;;;;;;;;;;;1.79;100.00;97435.53;10402413;28;20050;-78
2021/12/27 08:35:40;;;;;;;66.43;24.15;;;;;;;1.79;100.00;97438.97;10370227;28;19921;-78
2021/12/27 08:40:43;;;;;;;65.43;24.33;;;;;;;1.86;100.00;97426.19;10392039;28;20085;-78
2021/12/27 08:45:43;;;;;;;64.82;24.30;;;;;;;1.75;100.00;97423.97;10401667;28;20041;-79
2021/12/27 08:50:47;;;;;;;72.50;26.13;;;;;;;1.79;100.00;97424.97;10420215;28;20064;-78
2021/12/27 08:55:47;;;;;;;79.38;27.58;;;;;;;1.79;100.00;97430.25;10422281;28;20061;-77
2021/12/27 09:00:48;;;;;;;73.45;23.65;;;;;;;1.93;100.00;97431.91;10391719;28;20488;-76
2021/12/27 09:05:49;;;;;;;65.85;24.80;;;;;;;1.92;100.00;97430.34;10435155;28;20398;-77
2021/12/27 09:10:49;;;;;;;62.15;24.48;;;;;;;1.89;100.00;97430.09;10422872;28;20060;-79
2021/12/27 09:15:51;;;;;;;68.65;23.83;;;;;;;1.96;100.00;97419.94;10436254;28;20299;-78
2021/12/27 09:20:52;;;;;;;65.68;24.88;;;;;;;2.03;100.00;97420.38;10457530;28;20053;-78
2021/12/27 09:25:52;;;;;;;75.75;25.98;;;;;;;2.02;100.00;97418.03;10430402;28;20425;-77
2021/12/27 09:30:53;;;;;;;64.15;23.42;;;;;;;2.09;100.00;97413.13;10438535;28;20121;-77
2021/12/27 09:35:54;;;;;;;72.10;24.27;;;;;;;2.12;100.00;97412.56;10435717;28;20044;-77
2021/12/27 09:40:55;;;;;;;74.95;24.73;;;;;;;2.10;100.00;97418.13;10446621;28;20058;-78
2021/12/27 09:45:56;;;;;;;66.07;22.33;;;;;;;2.28;100.00;97417.31;10430029;28;20132;-78
2021/12/27 09:50:58;;;;;;;64.30;26.08;;;;;;;2.20;100.00;97418.00;10396224;28;20057;-78
2021/12/27 09:56:00;;;;;;;64.05;24.17;;;;;;;2.27;100.00;97407.78;10419973;28;20061;-77
2021/12/27 10:01:03;;;;;;;59.45;23.92;;;;;;;2.25;100.00;97414.47;10389828;28;20191;-78
2021/12/27 10:06:12;;;;;;;61.17;24.50;;;;;;;2.21;100.00;97413.47;10418990;28;20053;-78
2021/12/27 10:11:24;;;;;;;68.32;23.73;;;;;;;2.27;100.00;97402.50;10422734;28;20143;-78
2021/12/27 10:16:27;;;;;;;59.00;22.88;;;;;;;2.43;100.00;97410.97;10448664;28;20025;-78
2021/12/27 10:21:28;;;;;;;69.25;25.80;;;;;;;2.41;100.00;97410.50;10452177;28;20065;-79
2021/12/27 10:26:30;;;;;;;62.92;23.20;;;;;;;2.40;100.00;97406.28;10430039;28;20053;-78
2021/12/27 10:31:59;;;;;;;57.63;23.52;;;;;;;2.39;100.00;97398.63;10417435;28;20053;-78
2021/12/27 10:37:06;;;;;;;66.35;23.77;;;;;;;2.51;100.00;97401.59;10391418;28;20743;-78
2021/12/27 10:42:12;;;;;;;65.50;24.05;;;;;;;2.60;100.00;97396.41;10397797;28;20049;-78
2021/12/27 10:47:24;;;;;;;57.22;23.40;;;;;;;2.68;100.00;97401.81;10383727;28;20041;-78
2021/12/27 10:52:55;;;;;;;49.38;22.75;;;;;;;2.78;100.00;97393.69;10413579;28;20049;-79
2021/12/27 10:58:22;;;;;;;47.30;20.88;;;;;;;2.92;100.00;97380.41;10441598;28;20124;-78
2021/12/27 11:03:38;;;;;;;42.00;19.30;;;;;;;2.84;100.00;97378.47;10436117;28;20118;-78
2021/12/27 11:08:44;;;;;;;42.65;18.55;;;;;;;2.72;100.00;97370.22;10418784;28;20127;-77
2021/12/27 11:13:48;;;;;;;42.72;19.90;;;;;;;2.75;100.00;97367.00;10428416;28;20084;-77
2021/12/27 11:18:50;;;;;;;40.42;19.40;;;;;;;2.80;100.00;97357.06;10413639;28;20078;-78
2021/12/27 11:23:52;;;;;;;36.53;16.88;;;;;;;2.72;100.00;97356.97;10414964;28;20156;-77
2021/12/27 11:29:07;;;;;;;37.67;17.80;;;;;;;2.72;100.00;97346.38;10382571;28;20053;-78
2021/12/27 11:34:12;;;;;;;42.78;18.63;;;;;;;2.64;100.00;97342.53;10385473;28;20132;-80
2021/12/27 11:39:20;;;;;;;42.97;18.77;;;;;;;2.75;100.00;97341.28;10414488;28;20057;-80
2021/12/27 11:44:37;;;;;;;40.13;18.60;;;;;;;2.71;100.00;97328.91;10425274;28;20061;-78
2021/12/27 11:49:50;;;;;;;46.05;18.15;;;;;;;2.90;100.00;97318.97;10431801;28;20064;-78
2021/12/27 11:55:10;;;;;;;39.13;18.40;;;;;;;2.95;100.00;97337.44;10444762;28;20112;-79
2021/12/27 12:00:28;;;;;;;40.25;18.27;;;;;;;2.92;100.00;97330.06;10454242;28;20054;-80
2021/12/27 12:05:37;;;;;;;42.00;18.33;;;;;;;2.96;100.00;97324.97;10401443;28;20132;-78
2021/12/27 12:10:49;;;;;;;41.80;18.80;;;;;;;3.01;100.00;97307.06;10413402;28;20062;-80
2021/12/27 12:15:59;;;;;;;47.10;20.17;;;;;;;3.00;100.00;97292.25;10423762;28;20118;-79
2021/12/27 12:21:00;;;;;;;41.92;18.85;;;;;;;2.95;100.00;97299.56;10440679;28;20053;-79
2021/12/27 12:26:03;;;;;;;43.25;19.35;;;;;;;3.06;100.00;97285.78;10399043;28;20065;-79
2021/12/27 12:31:08;;;;;;;46.17;20.92;;;;;;;3.02;100.00;97294.63;10386730;28;20060;-79
2021/12/27 12:36:11;;;;;;;39.47;17.95;;;;;;;2.83;100.00;97287.59;10436334;28;20057;-79
2021/12/27 12:41:20;;;;;;;37.83;17.83;;;;;;;2.66;100.00;97295.38;10407122;28;20068;-81
2021/12/27 12:46:31;;;;;;;45.38;19.50;;;;;;;2.72;100.00;97285.44;10413202;28;20057;-78
2021/12/27 12:51:47;;;;;;;44.17;18.13;;;;;;;2.67;100.00;97288.19;10425834;28;20117;-80
2021/12/27 12:56:52;;;;;;;43.28;20.67;;;;;;;2.58;100.00;97292.63;10397372;28;20060;-79
2021/12/27 13:02:05;;;;;;;41.60;20.08;;;;;;;2.63;100.00;97285.34;10413328;28;20046;-78
2021/12/27 13:07:14;;;;;;;42.20;18.95;;;;;;;2.53;100.00;97288.97;10388134;28;20057;-78
2021/12/27 13:12:30;;;;;;;39.67;18.05;;;;;;;2.42;100.00;97284.19;10402678;28;20050;-79
2021/12/27 13:17:31;;;;;;;38.72;18.27;;;;;;;2.38;100.00;97278.69;10389225;28;20073;-79
2021/12/27 13:22:51;;;;;;;42.25;18.98;;;;;;;2.43;100.00;97283.88;10427539;28;20531;-78
2021/12/27 13:28:08;;;;;;;39.10;18.63;;;;;;;2.45;100.00;97279.06;10415367;28;20064;-77
2021/12/27 13:33:18;;;;;;;40.80;18.25;;;;;;;2.41;100.00;97286.03;10357135;28;20119;-79
2021/12/27 13:39:01;;;;;;;33.22;15.23;;;;;;;2.37;100.00;97290.34;10409258;28;20144;-78
2021/12/27 13:44:06;;;;;;;32.42;15.30;;;;;;;2.42;100.00;97297.41;10404574;28;20062;-78
2021/12/27 13:49:11;;;;;;;29.95;14.18;;;;;;;2.39;100.00;97290.06;10357308;28;20056;-79
2021/12/27 13:54:16;;;;;;;28.73;15.13;;;;;;;2.31;100.00;97283.59;10421318;28;20046;-79
2021/12/27 13:59:22;;;;;;;28.00;13.90;;;;;;;2.37;100.00;97277.09;10417102;28;20065;-79
2021/12/27 14:04:29;;;;;;;27.77;13.55;;;;;;;2.41;100.00;97274.66;10403369;28;20094;-81
2021/12/27 14:09:41;;;;;;;27.65;12.48;;;;;;;2.44;100.00;97274.06;10446831;28;20045;-79
2021/12/27 14:14:51;;;;;;;27.23;13.60;;;;;;;2.47;100.00;97284.06;10441839;28;20042;-79
2021/12/27 14:20:00;;;;;;;25.08;12.48;;;;;;;2.52;100.00;97290.06;10430907;28;20029;-79
2021/12/27 14:25:03;;;;;;;30.05;12.43;;;;;;;2.51;100.00;97288.50;10440078;28;20054;-80
2021/12/27 14:30:15;;;;;;;28.77;13.32;;;;;;;2.55;100.00;97294.75;10408629;28;20053;-78
2021/12/27 14:35:46;;;;;;;26.70;12.95;;;;;;;2.61;100.00;97294.66;10429043;28;20061;-79
2021/12/27 14:40:54;;;;;;;32.63;14.63;;;;;;;2.60;100.00;97279.84;10399393;28;20633;-79
2021/12/27 14:46:00;;;;;;;28.25;13.77;;;;;;;2.62;100.00;97267.09;10377644;28;20057;-80
2021/12/27 14:51:15;;;;;;;25.50;12.55;;;;;;;2.66;100.00;97258.28;10370496;28;20080;-79
2021/12/27 14:56:23;;;;;;;27.55;12.93;;;;;;;2.69;100.00;97265.63;10385945;28;20516;-81
2021/12/27 15:01:27;;;;;;;30.65;14.45;;;;;;;2.63;100.00;97276.59;10421611;28;20145;-80
2021/12/27 15:06:55;;;;;;;29.73;12.55;;;;;;;2.62;100.00;97291.72;10416851;28;20065;-79
2021/12/27 15:11:57;;;;;;;27.10;12.20;;;;;;;2.63;100.00;97293.28;10375127;28;20061;-81
2021/12/27 15:16:58;;;;;;;29.30;13.65;;;;;;;2.59;100.00;97297.63;10437429;28;20061;-79
2021/12/27 15:22:05;;;;;;;32.08;13.63;;;;;;;2.60;100.00;97304.47;10378501;28;20145;-80
2021/12/27 15:27:44;;;;;;;29.95;13.35;;;;;;;2.57;100.00;97313.03;10393229;28;20109;-80
2021/12/27 15:33:12;;;;;;;31.20;14.77;;;;;;;2.62;100.00;97304.97;10372518;28;20072;-80
2021/12/27 15:38:24;;;;;;;33.13;14.43;;;;;;;2.61;100.00;97305.25;10383563;28;20089;-78
2021/12/27 15:43:27;;;;;;;33.33;15.18;;;;;;;2.61;100.00;97302.63;10401088;28;20033;-83
2021/12/27 15:48:29;;;;;;;36.55;14.90;;;;;;;2.62;100.00;97301.53;10392216;28;20045;-79
2021/12/27 15:53:32;;;;;;;38.17;14.57;;;;;;;2.58;100.00;97306.66;10381461;28;20117;-80
2021/12/27 15:58:43;;;;;;;31.85;14.18;;;;;;;2.64;100.00;97310.75;10427989;28;20072;-79
2021/12/27 16:03:46;;;;;;;34.05;14.55;;;;;;;2.60;100.00;97288.59;10399866;28;20576;-79
2021/12/27 16:08:47;;;;;;;36.28;16.38;;;;;;;2.58;100.00;97298.69;10382327;28;20056;-78
2021/12/27 16:13:48;;;;;;;30.40;14.43;;;;;;;2.55;100.00;97304.56;10426950;28;20121;-75
2021/12/27 16:18:49;;;;;;;38.50;16.13;;;;;;;2.54;100.00;97309.06;10429365;28;20054;-78
2021/12/27 16:23:50;;;;;;;34.55;16.20;;;;;;;2.59;100.00;97304.78;10429820;28;20101;-78
2021/12/27 16:28:51;;;;;;;42.38;19.08;;;;;;;2.42;100.00;97292.91;10443495;28;20057;-78
2021/12/27 16:34:00;;;;;;;47.50;21.02;;;;;;;2.33;100.00;97294.66;10446970;28;20140;-79
2021/12/27 16:39:01;;;;;;;42.35;19.73;;;;;;;2.27;100.00;97295.81;10443254;28;20192;-80
2021/12/27 16:44:02;;;;;;;43.80;19.05;;;;;;;2.23;100.00;97308.09;10420067;28;20037;-79
2021/12/27 16:49:05;;;;;;;50.08;22.33;;;;;;;2.20;100.00;97327.22;10452277;28;20038;-81
2021/12/27 16:54:08;;;;;;;48.73;20.43;;;;;;;2.11;100.00;97318.38;10435665;28;20053;-79
2021/12/27 16:59:11;;;;;;;44.33;20.33;;;;;;;2.17;100.00;97306.59;10416947;28;20291;-80
2021/12/27 17:04:13;;;;;;;47.03;19.92;;;;;;;2.12;100.00;97306.69;10414091;28;20129;-78
2021/12/27 17:09:14;;;;;;;50.00;21.17;;;;;;;2.09;100.00;97309.91;10439345;28;20068;-79
2021/12/27 17:14:16;;;;;;;49.38;21.10;;;;;;;2.08;100.00;97311.00;10433350;28;20571;-78
2021/12/27 17:19:21;;;;;;;44.22;20.83;;;;;;;2.12;100.00;97327.88;10419159;28;20057;-79
2021/12/27 17:24:28;;;;;;;42.60;20.15;;;;;;;2.14;100.00;97320.41;10427210;28;20053;-80
2021/12/27 17:29:29;;;;;;;41.78;19.13;;;;;;;2.13;100.00;97337.38;10428761;28;20045;-78
2021/12/27 17:34:30;;;;;;;40.83;18.92;;;;;;;2.12;100.00;97323.38;10404236;28;20050;-80
2021/12/27 17:39:36;;;;;;;41.70;18.88;;;;;;;2.08;100.00;97324.22;10401724;28;20079;-80
2021/12/27 17:44:38;;;;;;;42.03;18.23;;;;;;;2.09;100.00;97336.38;10397039;28;20053;-79
2021/12/27 17:49:39;;;;;;;39.97;18.00;;;;;;;2.05;100.00;97322.16;10378338;28;20061;-78
2021/12/27 17:54:46;;;;;;;46.08;21.65;;;;;;;2.03;100.00;97319.81;10405270;28;20061;-78
2021/12/27 18:00:05;;;;;;;38.65;18.50;;;;;;;1.94;100.00;97314.41;10392270;28;20054;-81
2021/12/27 18:05:14;;;;;;;39.20;17.63;;;;;;;1.91;100.00;97322.91;10368321;28;20064;-78
2021/12/27 18:10:22;;;;;;;39.50;18.35;;;;;;;1.94;100.00;97316.25;10369502;28;20056;-81
2021/12/27 18:15:27;;;;;;;40.20;17.90;;;;;;;1.91;100.00;97322.13;10361106;28;20057;-80
2021/12/27 18:20:53;;;;;;;;;;;;;;;1.84;100.00;97321.72;10360689;28;20057;-80
2021/12/27 18:26:09;;;;;;;39.78;18.23;;;;;;;1.83;100.00;97313.00;10408423;28;19926;-82
2021/12/27 18:31:12;;;;;;;39.55;19.02;;;;;;;1.87;100.00;97329.06;10336366;28;20066;-82
2021/12/27 18:36:26;;;;;;;43.88;19.63;;;;;;;1.82;100.00;97324.63;10395475;28;20065;-82
2021/12/27 18:41:27;;;;;;;32.90;17.17;;;;;;;1.81;100.00;97319.63;10381191;28;20045;-84
2021/12/27 18:46:39;;;;;;;34.67;16.73;;;;;;;1.78;100.00;97314.94;10364374;28;20055;-82
2021/12/27 18:52:03;;;;;;;35.22;17.83;;;;;;;1.68;100.00;97321.97;10400507;28;20125;-82
2021/12/27 18:57:08;;;;;;;32.58;17.05;;;;;;;1.68;100.00;97321.19;10441075;28;20126;-84
2021/12/27 19:02:32;;;;;;;35.72;18.27;;;;;;;1.67;100.00;97317.75;10395338;28;20053;-82
2021/12/27 19:07:35;;;;;;;33.47;18.23;;;;;;;1.75;100.00;97324.25;10373537;28;20061;-84
2021/12/27 19:12:39;;;;;;;34.95;19.05;;;;;;;1.71;100.00;97325.88;10392206;28;20057;-83
2021/12/27 19:23:04;;;;;;;33.08;18.00;;;;;;;1.68;100.00;97318.53;10560720;23;20050;-78
2021/12/27 19:28:05;;;;;;;39.72;18.80;;;;;;;1.72;100.00;97316.88;10350065;28;20058;-80
2021/12/27 19:33:06;;;;;;;38.22;20.55;;;;;;;1.73;100.00;97309.72;10334360;28;20512;-79
2021/12/27 19:38:13;;;;;;;43.03;20.23;;;;;;;1.63;100.00;97327.31;10345839;28;20136;-80
2021/12/27 19:43:16;;;;;;;44.17;20.48;;;;;;;1.61;100.00;97328.69;10386270;28;20034;-81
2021/12/27 19:48:46;;;;;;;44.77;21.90;;;;;;;1.64;100.00;97322.81;10364228;28;20050;-80
2021/12/27 19:53:52;;;;;;;38.22;20.83;;;;;;;1.69;100.00;97326.16;10411780;28;20097;-82
2021/12/27 19:58:53;;;;;;;42.92;20.40;;;;;;;1.62;100.00;97331.03;10366638;28;20038;-81
2021/12/27 20:04:13;;;;;;;40.00;20.48;;;;;;;1.69;100.00;97326.16;10371371;28;20077;-82
2021/12/27 20:09:20;;;;;;;44.53;21.08;;;;;;;1.66;100.00;97334.69;10370774;28;20053;-83
2021/12/27 20:14:23;;;;;;;44.25;21.13;;;;;;;1.73;100.00;97341.47;10384991;28;20058;-79
2021/12/27 20:19:26;;;;;;;41.20;21.63;;;;;;;1.68;100.00;97339.69;10374078;28;20049;-81
2021/12/27 20:24:26;;;;;;;44.63;22.23;;;;;;;1.67;100.00;97346.84;10376647;28;20068;-79
2021/12/27 20:29:32;;;;;;;48.15;23.30;;;;;;;1.63;100.00;97343.19;10410193;28;20057;-78
2021/12/27 20:34:32;;;;;;;42.08;22.50;;;;;;;1.71;100.00;97331.16;10392338;28;20068;-80
2021/12/27 20:39:33;;;;;;;48.42;23.58;;;;;;;1.65;100.00;97329.69;10372219;28;20054;-78
2021/12/27 20:44:35;;;;;;;48.85;23.95;;;;;;;1.67;100.00;97327.53;10418656;28;20071;-81
2021/12/27 20:49:39;;;;;;;53.50;24.63;;;;;;;1.68;100.00;97327.25;10362290;28;20060;-78
2021/12/27 20:54:39;;;;;;;50.30;24.85;;;;;;;1.70;100.00;97332.25;10402420;28;20057;-78
2021/12/27 20:59:42;;;;;;;55.65;26.13;;;;;;;1.69;100.00;97328.03;10412294;28;20046;-79
2021/12/27 21:04:42;;;;;;;52.30;24.65;;;;;;;1.68;100.00;97332.53;10408986;28;20063;-78
2021/12/27 21:09:43;;;;;;;53.97;26.45;;;;;;;1.69;100.00;97326.16;10407471;28;20085;-78
2021/12/27 21:14:45;;;;;;;56.67;25.65;;;;;;;1.67;100.00;97327.53;10386325;28;20069;-78
2021/12/27 21:19:48;;;;;;;60.22;26.73;;;;;;;1.63;100.00;97316.72;10402462;28;20050;-78
2021/12/27 21:24:48;;;;;;;54.42;25.50;;;;;;;1.68;100.00;97318.53;10394047;28;20069;-77
2021/12/27 21:29:50;;;;;;;49.13;25.25;;;;;;;1.68;100.00;97310.59;10354086;28;20076;-78
2021/12/27 21:34:51;;;;;;;57.65;26.75;;;;;;;1.64;100.00;97320.94;10358568;28;20053;-78
2021/12/27 21:39:52;;;;;;;62.13;27.65;;;;;;;1.68;100.00;97323.81;10350829;28;20057;-81
2021/12/27 21:44:54;;;;;;;59.60;27.90;;;;;;;1.74;100.00;97306.00;10357672;28;20123;-78
2021/12/27 21:49:57;;;;;;;60.85;28.52;;;;;;;1.70;100.00;97311.09;10397712;28;20507;-78
2021/12/27 21:54:57;;;;;;;57.35;27.08;;;;;;;1.70;100.00;97309.22;10420579;28;20079;-78
2021/12/27 21:59:59;;;;;;;56.08;26.98;;;;;;;1.70;100.00;97309.22;10415075;28;20053;-76
2021/12/27 22:05:00;;;;;;;62.50;29.38;;;;;;;1.69;100.00;97306.88;10418511;28;20049;-78
2021/12/27 22:10:06;;;;;;;65.55;28.48;;;;;;;1.73;100.00;97307.84;10433259;28;20053;-78
2021/12/27 22:15:11;;;;;;;63.05;29.13;;;;;;;1.77;100.00;97294.84;10394946;28;20088;-80
2021/12/27 22:20:13;;;;;;;63.30;26.70;;;;;;;1.85;100.00;97289.69;10449175;28;20045;-78
2021/12/27 22:25:18;;;;;;;62.15;29.55;;;;;;;1.77;100.00;97282.41;10417468;28;20041;-80
2021/12/27 22:30:21;;;;;;;56.97;29.55;;;;;;;1.84;100.00;97284.69;10417379;28;20034;-79
2021/12/27 22:35:24;;;;;;;62.60;29.17;;;;;;;1.86;100.00;97282.53;10378507;28;20073;-82
2021/12/27 22:40:27;;;;;;;63.58;28.58;;;;;;;1.91;100.00;97271.84;10399707;28;20069;-81
2021/12/27 22:45:28;;;;;;;63.58;28.38;;;;;;;1.96;100.00;97266.47;10439958;28;20052;-79
2021/12/27 22:50:31;;;;;;;58.45;28.20;;;;;;;1.96;100.00;97264.63;10413118;28;20427;-79
2021/12/27 22:55:34;;;;;;;60.50;29.33;;;;;;;2.02;100.00;97269.84;10404837;28;20148;-79
2021/12/27 23:00:38;;;;;;;53.58;24.92;;;;;;;2.08;100.00;97261.50;10407066;28;20058;-78
2021/12/27 23:05:40;;;;;;;64.50;27.08;;;;;;;2.05;100.00;97248.84;10425412;28;20052;-79
2021/12/27 23:10:41;;;;;;;66.10;28.63;;;;;;;2.06;100.00;97250.41;10364277;28;20064;-79